Time;durP1;ratioP1;P1;durP2;ratioP2;P2;SDS_P1;SDS_P2;PMS_P1;PMS_P2;Temp;Humidity;BMP_temperature;BMP_pressure;BME280_temperature;BME280_humidity;BME280_pressure;Samples;Min_cycle;Max_cycle;Signal;HPM_P1;HPM_P2
2022/04/04 00:01:27;;;;;;;32.80;14.90;;;;;;;-0.91;66.77;98739.17;108291;1278;22544;-73
2022/04/04 00:03:54;;;;;;;26.80;13.90;;;;;;;-0.89;66.55;98735.70;108300;1278;26599;-74
2022/04/04 00:06:21;;;;;;;25.30;11.80;;;;;;;-0.90;66.32;98735.70;108294;1279;22556;-73
2022/04/04 00:08:48;;;;;;;25.70;12.00;;;;;;;-0.91;66.16;98735.58;108306;1278;22529;-75
2022/04/04 00:11:15;;;;;;;30.60;14.10;;;;;;;-0.92;65.91;98733.88;108288;1277;22544;-74
2022/04/04 00:13:42;;;;;;;26.70;14.10;;;;;;;-0.94;65.92;98731.34;108294;1278;24317;-74
2022/04/04 00:16:09;;;;;;;28.90;14.10;;;;;;;-0.95;65.74;98728.62;108298;1279;22557;-75
2022/04/04 00:18:36;;;;;;;38.20;16.40;;;;;;;-0.95;65.70;98727.77;108280;1278;22564;-74
2022/04/04 00:21:04;;;;;;;39.50;17.40;;;;;;;-0.98;65.79;98726.96;108276;1278;22571;-74
2022/04/04 00:23:31;;;;;;;44.00;17.90;;;;;;;-0.99;65.84;98723.41;108304;1278;24202;-74
2022/04/04 00:25:58;;;;;;;35.50;15.30;;;;;;;-1.02;65.65;98719.86;108278;1278;23244;-74
2022/04/04 00:28:26;;;;;;;31.60;13.90;;;;;;;-1.03;65.69;98722.10;108286;1278;22543;-74
2022/04/04 00:30:53;;;;;;;33.50;15.40;;;;;;;-1.06;65.88;98722.16;108313;1278;22704;-75
2022/04/04 00:33:19;;;;;;;28.80;14.30;;;;;;;-1.08;65.98;98723.23;108315;1278;22560;-75
2022/04/04 00:35:47;;;;;;;26.50;12.40;;;;;;;-1.10;65.74;98719.84;108281;1278;22631;-75
2022/04/04 00:38:14;;;;;;;26.60;12.90;;;;;;;-1.12;65.65;98719.35;108276;1278;22566;-76
2022/04/04 00:40:43;;;;;;;23.60;10.90;;;;;;;-1.14;65.95;98716.63;108275;1278;22618;-74
2022/04/04 00:43:10;;;;;;;28.20;14.50;;;;;;;-1.16;65.79;98717.36;108294;1277;22593;-73
2022/04/04 00:45:37;;;;;;;26.20;14.00;;;;;;;-1.12;66.13;98715.07;108280;1277;22599;-73
2022/04/04 00:48:05;;;;;;;23.90;12.20;;;;;;;-1.07;66.90;98716.35;108297;1277;22543;-73
2022/04/04 00:50:32;;;;;;;23.80;11.50;;;;;;;-1.04;67.61;98717.15;108275;1278;22586;-73
2022/04/04 00:53:00;;;;;;;24.70;11.70;;;;;;;-1.06;67.49;98714.29;108307;1278;24399;-75
2022/04/04 00:55:28;;;;;;;25.70;11.20;;;;;;;-1.07;67.23;98713.62;108297;1279;22550;-76
2022/04/04 00:57:55;;;;;;;29.50;12.40;;;;;;;-1.08;66.87;98711.94;108282;1277;22555;-76
2022/04/04 01:00:24;;;;;;;32.60;14.30;;;;;;;-1.08;66.60;98711.10;108303;1279;24275;-75
2022/04/04 01:02:51;;;;;;;36.90;14.90;;;;;;;-1.09;66.58;98709.57;108303;1278;22600;-76
2022/04/04 01:05:18;;;;;;;33.60;16.10;;;;;;;-1.11;66.46;98705.83;108280;1278;23040;-75
2022/04/04 01:07:45;;;;;;;35.90;15.90;;;;;;;-1.11;66.33;98704.98;108305;1277;22583;-74
2022/04/04 01:10:12;;;;;;;35.10;15.40;;;;;;;-1.11;66.09;98705.84;108304;1277;22560;-74
2022/04/04 01:12:53;;;;;;;35.80;16.80;;;;;;;-1.13;66.23;98705.69;108279;1278;22630;-74
2022/04/04 01:15:22;;;;;;;38.20;17.00;;;;;;;-1.15;66.00;98702.29;108278;1278;22566;-73
2022/04/04 01:17:50;;;;;;;32.10;15.60;;;;;;;-1.17;66.11;98703.88;108280;1278;22560;-74
2022/04/04 01:20:19;;;;;;;37.60;16.10;;;;;;;-1.19;66.20;98702.21;108305;1277;22556;-74
2022/04/04 01:22:49;;;;;;;35.20;17.20;;;;;;;-1.23;66.21;98702.27;108332;1278;22707;-75
2022/04/04 01:25:31;;;;;;;31.80;15.10;;;;;;;-1.26;66.26;98696.18;108301;1277;22552;-75
2022/04/04 01:28:01;;;;;;;39.90;16.60;;;;;;;-1.28;66.15;98696.89;108275;1278;22584;-75
2022/04/04 01:30:30;;;;;;;36.60;16.10;;;;;;;-1.32;66.19;98696.27;108312;1278;22568;-75
2022/04/04 01:32:58;;;;;;;36.40;17.30;;;;;;;-1.35;66.27;98696.52;108256;1279;25537;-74
2022/04/04 01:35:26;;;;;;;40.90;18.90;;;;;;;-1.34;66.78;98696.15;108301;1279;22562;-74
2022/04/04 01:37:53;;;;;;;37.60;16.90;;;;;;;-1.35;67.34;98694.79;108289;1278;22549;-74
2022/04/04 01:40:20;;;;;;;35.10;16.90;;;;;;;-1.35;68.22;98693.27;108296;1278;24317;-74
2022/04/04 01:42:50;;;;;;;36.10;16.60;;;;;;;-1.38;68.13;98690.91;108295;1277;22581;-74
2022/04/04 01:45:17;;;;;;;39.70;16.20;;;;;;;-1.39;67.84;98684.43;108305;1278;24306;-74
2022/04/04 01:47:45;;;;;;;40.00;16.90;;;;;;;-1.42;67.47;98685.84;108302;1278;23961;-74
2022/04/04 01:50:12;;;;;;;36.60;16.00;;;;;;;-1.45;67.35;98679.56;108297;1278;22529;-73
2022/04/04 01:52:39;;;;;;;38.80;17.30;;;;;;;-1.48;67.15;98680.98;108290;1277;25391;-73
2022/04/04 01:55:07;;;;;;;41.80;17.50;;;;;;;-1.53;67.08;98678.85;108282;1277;22519;-74
2022/04/04 01:57:35;;;;;;;35.70;15.80;;;;;;;-1.56;67.00;98674.45;108125;1279;258848;-74
2022/04/04 02:00:04;;;;;;;32.90;14.10;;;;;;;-1.59;66.98;98673.30;108283;1279;23926;-73
2022/04/04 02:02:30;;;;;;;30.60;12.80;;;;;;;-1.63;67.13;98669.80;108323;1278;22641;-73
2022/04/04 02:04:58;;;;;;;31.10;15.70;;;;;;;-1.67;67.01;98663.87;108305;1278;22529;-74
2022/04/04 02:07:25;;;;;;;32.40;15.00;;;;;;;-1.68;66.79;98665.08;108285;1278;22562;-74
2022/04/04 02:09:53;;;;;;;29.20;13.00;;;;;;;-1.71;67.23;98661.05;108300;1279;23900;-74
2022/04/04 02:12:20;;;;;;;32.90;15.90;;;;;;;-1.74;67.03;98659.89;108301;1277;22602;-73
2022/04/04 02:14:47;;;;;;;27.80;13.60;;;;;;;-1.77;67.15;98659.42;108294;1278;22572;-73
2022/04/04 02:17:14;;;;;;;32.60;17.40;;;;;;;-1.81;67.02;98654.38;108290;1279;22628;-73
2022/04/04 02:19:41;;;;;;;32.10;18.20;;;;;;;-1.80;67.38;98655.04;108313;1278;22566;-74
2022/04/04 02:22:09;;;;;;;30.20;16.60;;;;;;;-1.77;68.15;98653.27;108290;1279;25287;-74
2022/04/04 02:24:36;;;;;;;29.80;14.30;;;;;;;-1.77;68.72;98654.98;108293;1278;22541;-74
2022/04/04 02:27:04;;;;;;;26.50;13.30;;;;;;;-1.79;68.80;98650.59;108296;1277;22532;-74
2022/04/04 02:29:31;;;;;;;29.60;14.90;;;;;;;-1.83;68.48;98652.00;108290;1278;22573;-73
2022/04/04 02:31:58;;;;;;;22.00;13.00;;;;;;;-1.83;68.07;98644.49;108293;1278;28471;-73
2022/04/04 02:34:25;;;;;;;32.80;14.30;;;;;;;-1.85;68.12;98640.59;108334;1278;22551;-74
2022/04/04 02:36:52;;;;;;;30.90;15.40;;;;;;;-1.88;68.07;98639.63;108286;1277;24211;-73
2022/04/04 02:39:19;;;;;;;31.10;14.20;;;;;;;-1.91;67.96;98639.66;108319;1278;22551;-74
2022/04/04 02:41:46;;;;;;;30.00;14.90;;;;;;;-1.93;67.79;98641.56;108297;1277;23116;-75
2022/04/04 02:44:13;;;;;;;29.40;15.00;;;;;;;-1.97;67.72;98645.21;108299;1277;22812;-75
2022/04/04 02:46:40;;;;;;;26.90;14.40;;;;;;;-1.98;67.65;98646.61;108298;1278;22532;-73
2022/04/04 02:49:07;;;;;;;25.20;13.70;;;;;;;-2.02;67.73;98646.98;108275;1277;22541;-73
2022/04/04 02:51:34;;;;;;;23.00;12.40;;;;;;;-2.06;67.67;98645.67;108320;1278;22558;-73
2022/04/04 02:54:01;;;;;;;25.10;13.50;;;;;;;-2.08;67.52;98644.02;108285;1278;22566;-73
2022/04/04 02:56:30;;;;;;;28.60;15.70;;;;;;;-2.06;67.86;98646.70;108309;1277;22562;-76
2022/04/04 02:59:01;;;;;;;22.40;14.10;;;;;;;-2.06;68.62;98647.90;108296;1277;22670;-76
2022/04/04 03:01:29;;;;;;;24.40;13.80;;;;;;;-2.06;69.16;98644.15;108272;1277;22538;-73
2022/04/04 03:03:57;;;;;;;28.80;14.80;;;;;;;-2.10;69.20;98643.36;108328;1277;22576;-73
2022/04/04 03:06:24;;;;;;;24.30;13.90;;;;;;;-2.12;69.02;98645.25;108315;1278;24315;-73
2022/04/04 03:08:51;;;;;;;26.90;14.30;;;;;;;-2.14;68.70;98648.71;108279;1277;22622;-75
2022/04/04 03:11:18;;;;;;;26.10;14.30;;;;;;;-2.15;68.61;98646.33;108295;1278;22559;-75
2022/04/04 03:13:46;;;;;;;26.80;14.50;;;;;;;-2.17;68.35;98647.57;108286;1278;23058;-76
2022/04/04 03:16:14;;;;;;;27.10;13.80;;;;;;;-2.18;68.40;98648.77;108255;1278;22558;-73
2022/04/04 03:18:41;;;;;;;22.50;13.00;;;;;;;-2.19;68.50;98650.31;108331;1277;22577;-73
2022/04/04 03:21:08;;;;;;;26.80;15.50;;;;;;;-2.19;68.16;98648.95;108293;1277;22553;-73
2022/04/04 03:23:39;;;;;;;26.20;14.50;;;;;;;-2.22;68.16;98647.45;108298;1278;22677;-73
2022/04/04 03:26:08;;;;;;;31.70;16.60;;;;;;;-2.24;67.93;98644.75;108288;1277;22543;-73
2022/04/04 03:28:36;;;;;;;29.30;16.00;;;;;;;-2.26;68.07;98638.13;108300;1277;22581;-73
2022/04/04 03:31:06;;;;;;;34.50;17.30;;;;;;;-2.28;68.48;98638.49;108299;1277;22600;-73
2022/04/04 03:33:34;;;;;;;34.70;19.80;;;;;;;-2.29;67.94;98637.82;108302;1277;22550;-72
2022/04/04 03:36:02;;;;;;;35.10;18.50;;;;;;;-2.26;68.32;98638.47;108293;1278;24398;-73
2022/04/04 03:38:30;;;;;;;27.20;14.50;;;;;;;-2.22;68.99;98641.65;108275;1277;22531;-73
2022/04/04 03:40:57;;;;;;;24.50;14.10;;;;;;;-2.20;69.44;98641.79;108283;1277;22558;-74
2022/04/04 03:43:25;;;;;;;29.90;15.10;;;;;;;-2.20;69.59;98643.34;108277;1277;25521;-73
2022/04/04 03:45:52;;;;;;;26.70;14.30;;;;;;;-2.20;69.50;98643.00;108295;1278;24309;-73
2022/04/04 03:48:19;;;;;;;30.80;15.30;;;;;;;-2.21;69.29;98641.80;108301;1277;22568;-73
2022/04/04 03:50:47;;;;;;;23.60;12.40;;;;;;;-2.19;68.97;98645.02;108321;1277;22548;-74
2022/04/04 03:53:14;;;;;;;31.10;15.60;;;;;;;-2.19;68.96;98641.44;108323;1277;22714;-74
2022/04/04 03:55:43;;;;;;;38.10;18.90;;;;;;;-2.19;68.66;98641.10;108303;1277;22749;-74
2022/04/04 03:58:10;;;;;;;40.10;18.50;;;;;;;-2.19;68.62;98636.66;108298;1277;22547;-74
2022/04/04 04:00:39;;;;;;;40.80;18.80;;;;;;;-2.18;68.90;98637.34;108344;1277;24279;-74
2022/04/04 04:03:07;;;;;;;37.90;17.70;;;;;;;-2.18;68.61;98635.63;108312;1278;24269;-74
2022/04/04 04:05:36;;;;;;;39.40;19.00;;;;;;;-2.16;68.62;98634.75;108321;1277;22563;-74
2022/04/04 04:08:04;;;;;;;35.80;18.10;;;;;;;-2.13;68.57;98637.42;108345;1277;22566;-74
2022/04/04 04:10:30;;;;;;;37.40;19.00;;;;;;;-2.10;68.35;98636.37;108315;1277;22540;-74
2022/04/04 04:13:00;;;;;;;34.40;18.40;;;;;;;-2.04;68.89;98637.96;108336;1277;22570;-73
2022/04/04 04:15:27;;;;;;;28.60;15.50;;;;;;;-1.98;69.31;98639.23;108336;1278;22565;-74
2022/04/04 04:17:54;;;;;;;31.10;14.50;;;;;;;-1.91;69.81;98634.04;108317;1278;22570;-74
2022/04/04 04:20:35;;;;;;;30.30;15.10;;;;;;;-1.89;70.06;98634.35;108327;1277;24326;-74
2022/04/04 04:23:06;;;;;;;28.70;13.90;;;;;;;-1.86;69.82;98641.98;108299;1277;22541;-74
2022/04/04 04:25:35;;;;;;;29.60;15.30;;;;;;;-1.82;69.59;98641.77;108268;1278;24224;-75
2022/04/04 04:28:05;;;;;;;29.20;15.10;;;;;;;-1.79;69.53;98635.73;108330;1277;24272;-75
2022/04/04 04:30:32;;;;;;;30.60;15.90;;;;;;;-1.76;69.48;98630.90;108328;1278;22553;-74
2022/04/04 04:32:59;;;;;;;36.00;16.90;;;;;;;-1.75;69.07;98631.05;108334;1277;22545;-75
2022/04/04 04:35:27;;;;;;;38.30;19.10;;;;;;;-1.76;69.35;98629.70;108312;1278;22563;-74
2022/04/04 04:37:54;;;;;;;33.30;17.00;;;;;;;-1.76;69.26;98625.44;108329;1277;25420;-74
2022/04/04 04:40:21;;;;;;;28.50;15.60;;;;;;;-1.76;69.42;98617.91;108315;1278;24279;-74
2022/04/04 04:42:50;;;;;;;30.80;16.60;;;;;;;-1.73;69.35;98613.44;108296;1278;22636;-74
2022/04/04 04:45:18;;;;;;;37.70;19.90;;;;;;;-1.67;69.56;98608.73;108347;1277;22570;-74
2022/04/04 04:47:45;;;;;;;43.20;22.50;;;;;;;-1.61;70.21;98607.95;108336;1277;22567;-74
2022/04/04 04:50:14;;;;;;;32.10;18.00;;;;;;;-1.56;70.89;98618.96;108324;1277;22744;-74
2022/04/04 04:52:44;;;;;;;36.70;18.90;;;;;;;-1.56;70.92;98618.10;108338;1277;22655;-74
2022/04/04 04:55:13;;;;;;;25.40;14.50;;;;;;;-1.53;70.78;98615.66;108342;1277;22733;-74
2022/04/04 04:57:40;;;;;;;24.40;13.80;;;;;;;-1.51;70.48;98616.30;108309;1277;22570;-74
2022/04/04 05:00:12;;;;;;;23.50;13.30;;;;;;;-1.51;70.37;98619.55;108312;1277;24224;-74
2022/04/04 05:02:39;;;;;;;19.00;11.20;;;;;;;-1.53;70.41;98619.41;108346;1277;22529;-74
2022/04/04 05:05:07;;;;;;;24.50;13.30;;;;;;;-1.54;70.72;98624.73;108338;1277;22670;-76
2022/04/04 05:07:34;;;;;;;21.70;13.10;;;;;;;-1.54;70.73;98623.02;108341;1277;22566;-74
2022/04/04 05:10:01;;;;;;;23.90;13.30;;;;;;;-1.51;70.54;98627.58;108311;1277;22525;-74
2022/04/04 05:12:28;;;;;;;30.80;16.60;;;;;;;-1.48;70.46;98628.05;108301;1277;25319;-74
2022/04/04 05:14:55;;;;;;;31.20;16.70;;;;;;;-1.42;70.88;98622.99;108338;1277;22589;-74
2022/04/04 05:17:22;;;;;;;27.10;17.90;;;;;;;-1.36;71.63;98620.33;108327;1277;22623;-74
2022/04/04 05:19:49;;;;;;;28.50;15.20;;;;;;;-1.33;72.31;98620.59;108339;1278;22572;-73
2022/04/04 05:22:16;;;;;;;33.70;18.70;;;;;;;-1.34;72.23;98616.18;108273;1280;22540;-73
2022/04/04 05:24:43;;;;;;;29.80;15.30;;;;;;;-1.32;71.92;98620.75;108307;1278;22568;-73
2022/04/04 05:27:10;;;;;;;29.50;15.10;;;;;;;-1.30;71.78;98617.83;108294;1278;22543;-76
2022/04/04 05:29:37;;;;;;;28.60;17.10;;;;;;;-1.26;71.42;98620.48;108354;1278;22569;-76
2022/04/04 05:32:04;;;;;;;56.20;30.40;;;;;;;-1.24;71.25;98618.20;108308;1278;24411;-73
2022/04/04 05:34:32;;;;;;;32.30;16.40;;;;;;;-1.23;71.10;98618.89;108338;1277;24425;-74
2022/04/04 05:36:59;;;;;;;36.20;18.70;;;;;;;-1.22;70.77;98619.71;108348;1277;22556;-74
2022/04/04 05:39:26;;;;;;;37.80;18.40;;;;;;;-1.19;70.59;98620.35;108333;1277;22569;-74
2022/04/04 05:41:53;;;;;;;30.40;15.30;;;;;;;-1.13;70.48;98615.45;108304;1277;22541;-74
2022/04/04 05:44:20;;;;;;;29.80;16.90;;;;;;;-1.12;70.17;98612.69;108328;1277;24373;-74
2022/04/04 05:46:48;;;;;;;34.60;18.50;;;;;;;-1.05;70.38;98612.06;108329;1277;22560;-74
2022/04/04 05:49:15;;;;;;;34.40;17.30;;;;;;;-0.99;70.45;98611.25;108303;1277;22564;-74
2022/04/04 05:51:43;;;;;;;30.40;15.40;;;;;;;-0.94;70.56;98614.06;108341;1277;22610;-73
2022/04/04 05:54:10;;;;;;;32.70;17.00;;;;;;;-0.88;70.78;98614.13;108319;1277;22585;-74
2022/04/04 05:56:37;;;;;;;30.10;15.80;;;;;;;-0.81;70.37;98612.77;108327;1277;22566;-74
2022/04/04 05:59:05;;;;;;;31.00;16.70;;;;;;;-0.75;69.99;98607.88;108331;1277;22564;-74
2022/04/04 06:01:32;;;;;;;30.00;15.70;;;;;;;-0.65;69.53;98610.58;108342;1277;22626;-73
2022/04/04 06:03:59;;;;;;;28.70;15.70;;;;;;;-0.63;69.13;98614.15;108327;1277;22573;-73
2022/04/04 06:06:26;;;;;;;28.80;14.20;;;;;;;-0.59;68.97;98615.93;108318;1277;22591;-73
2022/04/04 06:08:53;;;;;;;25.60;12.40;;;;;;;-0.53;68.83;98614.07;108292;1278;22530;-73
2022/04/04 06:11:20;;;;;;;27.70;14.10;;;;;;;-0.49;68.38;98615.89;108345;1278;24235;-73
2022/04/04 06:13:47;;;;;;;24.30;11.40;;;;;;;-0.45;68.20;98615.46;108345;1277;22553;-73
2022/04/04 06:16:14;;;;;;;26.00;13.00;;;;;;;-0.39;68.07;98617.39;108322;1277;25358;-73
2022/04/04 06:18:42;;;;;;;32.00;15.30;;;;;;;-0.32;67.86;98619.45;108306;1277;22553;-73
2022/04/04 06:21:10;;;;;;;30.40;14.40;;;;;;;-0.30;67.74;98618.73;108316;1277;24350;-73
2022/04/04 06:23:37;;;;;;;32.20;16.10;;;;;;;-0.27;67.31;98620.20;108341;1277;22578;-74
2022/04/04 06:26:07;;;;;;;30.70;14.30;;;;;;;-0.24;67.54;98620.83;108340;1278;22547;-74
2022/04/04 06:28:35;;;;;;;24.60;14.10;;;;;;;-0.20;67.19;98616.13;108349;1277;22561;-74
2022/04/04 06:31:03;;;;;;;23.40;11.90;;;;;;;-0.13;67.28;98615.79;108331;1277;22583;-74
2022/04/04 06:33:31;;;;;;;24.40;14.70;;;;;;;-0.07;66.50;98612.56;108278;1277;24289;-74
2022/04/04 06:35:58;;;;;;;30.50;16.50;;;;;;;-0.01;66.99;98608.65;108354;1277;24262;-74
2022/04/04 06:38:25;;;;;;;32.30;17.00;;;;;;;0.10;67.41;98610.14;108356;1277;22604;-74
2022/04/04 06:40:52;;;;;;;29.60;15.10;;;;;;;0.17;67.34;98609.09;108336;1277;22553;-74
2022/04/04 06:43:19;;;;;;;24.20;13.40;;;;;;;0.25;66.76;98614.20;108334;1277;22560;-74
2022/04/04 06:45:47;;;;;;;24.70;12.90;;;;;;;0.34;66.43;98614.50;108330;1277;22757;-74
2022/04/04 06:48:14;;;;;;;22.90;13.20;;;;;;;0.49;65.93;98616.72;108326;1277;22569;-74
2022/04/04 06:50:41;;;;;;;23.30;11.60;;;;;;;0.55;65.54;98617.40;108348;1277;22621;-74
2022/04/04 06:53:08;;;;;;;19.50;10.70;;;;;;;0.61;65.30;98619.48;108356;1277;22526;-74
2022/04/04 06:55:36;;;;;;;18.20;10.10;;;;;;;0.67;64.88;98618.31;108334;1277;22555;-74
2022/04/04 06:58:03;;;;;;;26.40;12.60;;;;;;;0.62;64.53;98619.61;108336;1277;22557;-74
2022/04/04 07:00:30;;;;;;;20.80;11.50;;;;;;;0.56;64.20;98622.67;108351;1277;22548;-73
2022/04/04 07:02:58;;;;;;;21.60;10.80;;;;;;;0.51;63.96;98625.22;108337;1277;22561;-74
2022/04/04 07:05:25;;;;;;;21.90;10.00;;;;;;;0.42;64.07;98622.02;108365;1277;22562;-75
2022/04/04 07:07:53;;;;;;;21.70;12.50;;;;;;;0.36;64.09;98624.91;108345;1277;22598;-74
2022/04/04 07:10:20;;;;;;;22.60;11.50;;;;;;;0.29;63.77;98622.83;108363;1277;22703;-75
2022/04/04 07:12:47;;;;;;;20.30;11.00;;;;;;;0.29;63.93;98620.95;108366;1277;22560;-73
2022/04/04 07:15:14;;;;;;;20.70;9.90;;;;;;;0.29;64.25;98621.80;108366;1277;22625;-72
2022/04/04 07:17:43;;;;;;;17.00;9.70;;;;;;;0.28;63.88;98625.42;108329;1277;22546;-73
2022/04/04 07:20:12;;;;;;;19.90;11.00;;;;;;;0.27;64.03;98626.50;108345;1277;22617;-76
2022/04/04 07:22:41;;;;;;;18.10;9.80;;;;;;;0.27;64.08;98624.42;108388;1277;22560;-73
2022/04/04 07:25:10;;;;;;;19.90;10.70;;;;;;;0.31;64.20;98624.00;108344;1277;25246;-73
2022/04/04 07:27:40;;;;;;;16.50;9.80;;;;;;;0.32;64.12;98623.63;108353;1277;22545;-74
2022/04/04 07:30:09;;;;;;;25.00;13.70;;;;;;;0.34;63.84;98622.56;108366;1277;22563;-75
2022/04/04 07:32:36;;;;;;;23.40;12.30;;;;;;;0.37;63.88;98618.70;108350;1277;22558;-74
2022/04/04 07:35:05;;;;;;;25.10;13.60;;;;;;;0.43;63.89;98624.06;108360;1277;22714;-74
2022/04/04 07:37:33;;;;;;;24.60;12.90;;;;;;;0.51;63.94;98620.92;108368;1277;22566;-74
2022/04/04 07:40:00;;;;;;;25.30;12.10;;;;;;;0.62;64.09;98614.15;108349;1277;23984;-74
2022/04/04 07:42:27;;;;;;;20.20;10.70;;;;;;;0.70;63.58;98613.43;108336;1277;22624;-74
2022/04/04 07:44:54;;;;;;;22.10;12.50;;;;;;;0.73;63.26;98613.52;108354;1277;22586;-74
2022/04/04 07:47:22;;;;;;;23.10;12.10;;;;;;;0.75;63.07;98612.09;108328;1277;22617;-74
2022/04/04 07:49:49;;;;;;;22.10;11.60;;;;;;;0.76;62.92;98613.27;108319;1277;22575;-74
2022/04/04 07:52:16;;;;;;;21.00;12.40;;;;;;;0.84;63.00;98609.44;108320;1277;25502;-74
2022/04/04 07:54:43;;;;;;;22.40;12.40;;;;;;;0.97;63.08;98600.70;108340;1277;23984;-73
2022/04/04 07:57:11;;;;;;;21.00;12.90;;;;;;;1.13;62.83;98597.87;108362;1277;22561;-73
2022/04/04 07:59:38;;;;;;;18.60;11.10;;;;;;;1.34;62.89;98595.90;108355;1277;22564;-74
2022/04/04 08:02:05;;;;;;;22.70;13.20;;;;;;;1.60;62.48;98596.69;108354;1277;25291;-74
2022/04/04 08:04:32;;;;;;;21.80;11.20;;;;;;;1.86;61.73;98597.08;108356;1277;24313;-74
2022/04/04 08:06:59;;;;;;;22.40;12.00;;;;;;;2.14;61.71;98597.94;108324;1277;22536;-73
2022/04/04 08:09:29;;;;;;;21.50;12.50;;;;;;;2.38;60.98;98592.17;108336;1277;22569;-76
2022/04/04 08:11:56;;;;;;;20.00;11.20;;;;;;;2.53;60.81;98595.45;108337;1277;22568;-74
2022/04/04 08:14:24;;;;;;;21.40;11.80;;;;;;;2.63;60.30;98593.22;108336;1277;24522;-74
2022/04/04 08:16:51;;;;;;;19.70;11.40;;;;;;;2.70;59.89;98590.75;108350;1277;22607;-74
2022/04/04 08:19:18;;;;;;;20.50;12.00;;;;;;;2.81;60.15;98590.02;108342;1277;22729;-73
2022/04/04 08:21:45;;;;;;;23.00;13.40;;;;;;;2.91;59.95;98589.15;108382;1277;22566;-73
2022/04/04 08:24:13;;;;;;;19.80;11.40;;;;;;;3.03;59.76;98586.85;108339;1277;22597;-73
2022/04/04 08:26:41;;;;;;;20.60;12.10;;;;;;;3.06;59.62;98582.10;108342;1277;23427;-73
2022/04/04 08:29:12;;;;;;;19.30;12.50;;;;;;;3.14;59.71;98581.10;108336;1277;25260;-75
2022/04/04 08:31:39;;;;;;;19.30;11.60;;;;;;;3.14;58.94;98577.51;108347;1277;22565;-73
2022/04/04 08:34:07;;;;;;;19.00;10.50;;;;;;;3.15;58.82;98577.46;108338;1277;22544;-73
2022/04/04 08:36:34;;;;;;;18.10;10.90;;;;;;;3.14;58.38;98572.17;108333;1277;22553;-74
2022/04/04 08:39:02;;;;;;;18.90;10.70;;;;;;;3.00;58.21;98574.20;108352;1277;22575;-74
2022/04/04 08:41:31;;;;;;;18.50;11.20;;;;;;;2.97;58.19;98569.51;108359;1277;22582;-75
2022/04/04 08:44:01;;;;;;;19.90;12.60;;;;;;;2.95;58.36;98569.21;108344;1277;22654;-74
2022/04/04 08:46:30;;;;;;;16.80;10.20;;;;;;;2.94;58.75;98567.20;108349;1277;22734;-75
2022/04/04 08:48:58;;;;;;;17.70;9.90;;;;;;;2.94;58.83;98566.35;108326;1277;22564;-75
2022/04/04 08:51:28;;;;;;;18.30;10.00;;;;;;;2.99;58.77;98562.73;108343;1277;22566;-75
2022/04/04 08:53:56;;;;;;;17.00;10.90;;;;;;;3.06;58.65;98558.69;108346;1277;24247;-74
2022/04/04 08:56:24;;;;;;;25.30;10.10;;;;;;;3.14;58.94;98555.14;108330;1277;22619;-74
2022/04/04 08:58:52;;;;;;;17.00;9.50;;;;;;;3.24;58.88;98549.60;108337;1277;22592;-74
2022/04/04 09:01:20;;;;;;;13.10;9.20;;;;;;;3.32;58.81;98545.67;108345;1277;22533;-74
2022/04/04 09:03:53;;;;;;;15.10;10.10;;;;;;;3.36;58.14;98542.61;108351;1277;22611;-74
2022/04/04 09:06:20;;;;;;;;;;;;;;;3.42;58.24;98539.11;108384;1277;22520;-74
2022/04/04 09:08:49;;;;;;;12.90;8.00;;;;;;;3.44;57.75;98535.26;108339;1277;22621;-74
2022/04/04 09:11:16;;;;;;;14.90;9.40;;;;;;;3.48;57.62;98529.44;108384;1277;22575;-74
2022/04/04 09:13:44;;;;;;;15.20;8.30;;;;;;;3.54;57.79;98528.48;108345;1277;23096;-74
2022/04/04 09:16:11;;;;;;;16.50;9.40;;;;;;;3.59;58.09;98521.39;108334;1277;22544;-74
2022/04/04 09:18:41;;;;;;;15.80;9.10;;;;;;;3.67;58.00;98519.70;108342;1277;24358;-74
2022/04/04 09:21:12;;;;;;;16.30;9.20;;;;;;;3.80;57.89;98512.49;108347;1277;22715;-73
2022/04/04 09:23:42;;;;;;;14.80;8.30;;;;;;;3.86;57.78;98514.83;108375;1277;25507;-74
2022/04/04 09:26:42;;;;;;;13.80;9.00;;;;;;;3.86;57.47;98510.36;108352;1277;25220;-74
2022/04/04 09:29:20;;;;;;;14.30;8.90;;;;;;;3.89;57.93;98501.95;108357;1277;22546;-74
2022/04/04 09:32:05;;;;;;;17.40;9.90;;;;;;;4.00;57.53;98499.28;108310;1277;22610;-74
2022/04/04 09:34:52;;;;;;;12.20;8.10;;;;;;;4.05;57.16;98495.64;108330;1277;22573;-74
2022/04/04 09:37:21;;;;;;;12.50;7.70;;;;;;;4.09;56.97;98492.20;108351;1277;22541;-74
2022/04/04 09:40:01;;;;;;;12.90;8.10;;;;;;;4.13;57.15;98486.66;108341;1277;22565;-74
2022/04/04 09:42:28;;;;;;;12.30;6.40;;;;;;;4.19;56.93;98484.54;108347;1277;22614;-74
2022/04/04 09:45:01;;;;;;;15.80;7.90;;;;;;;4.22;56.65;98475.95;108354;1277;22587;-75
2022/04/04 09:47:52;;;;;;;15.50;9.00;;;;;;;4.28;57.08;98472.45;108323;1277;22556;-74
2022/04/04 09:50:38;;;;;;;11.60;7.10;;;;;;;4.45;57.16;98466.51;108343;1277;22699;-73
2022/04/04 09:53:09;;;;;;;11.50;7.50;;;;;;;4.61;56.65;98458.57;108345;1277;22561;-74
2022/04/04 09:55:39;;;;;;;13.10;7.20;;;;;;;4.73;56.69;98457.02;108344;1277;24314;-74
2022/04/04 09:58:09;;;;;;;11.10;7.00;;;;;;;4.83;57.04;98461.02;108344;1277;25356;-74
2022/04/04 10:00:38;;;;;;;12.10;7.50;;;;;;;4.91;56.15;98455.00;108321;1277;22605;-73
2022/04/04 10:03:12;;;;;;;13.30;7.30;;;;;;;4.95;55.96;98447.92;108350;1277;25266;-73
2022/04/04 10:06:09;;;;;;;10.90;7.00;;;;;;;5.01;55.60;98448.86;108349;1277;22538;-76
2022/04/04 10:08:38;;;;;;;10.40;6.40;;;;;;;4.97;55.04;98440.23;108240;1277;22674;-75
2022/04/04 10:11:08;;;;;;;11.50;7.00;;;;;;;5.07;54.59;98435.30;108343;1277;23808;-73
2022/04/04 10:13:36;;;;;;;12.10;6.80;;;;;;;5.16;55.02;98435.06;108323;1277;25223;-75
2022/04/04 10:16:04;;;;;;;11.20;7.00;;;;;;;5.20;54.19;98433.31;108325;1278;22605;-73
2022/04/04 10:18:35;;;;;;;12.70;6.60;;;;;;;5.15;54.35;98428.17;108382;1277;22567;-73
2022/04/04 10:21:03;;;;;;;12.10;6.40;;;;;;;5.15;54.40;98416.95;108309;1277;22561;-74
2022/04/04 10:23:30;;;;;;;11.70;6.90;;;;;;;5.23;55.12;98413.98;108322;1277;22554;-74
2022/04/04 10:25:58;;;;;;;9.60;5.70;;;;;;;5.37;55.43;98405.73;108305;1277;24314;-74
2022/04/04 10:28:37;;;;;;;9.00;5.20;;;;;;;5.47;54.91;98403.52;108336;1277;25359;-73
2022/04/04 10:31:21;;;;;;;9.50;6.40;;;;;;;5.37;54.58;98402.10;108313;1277;22535;-73
2022/04/04 10:33:53;;;;;;;12.40;6.80;;;;;;;5.28;54.16;98400.65;108286;1277;22588;-73
2022/04/04 10:36:25;;;;;;;9.70;6.40;;;;;;;5.25;53.84;98393.85;108337;1277;22578;-73
2022/04/04 10:38:55;;;;;;;13.90;7.20;;;;;;;5.29;53.77;98386.77;108339;1277;22570;-73
2022/04/04 10:41:27;;;;;;;11.50;7.50;;;;;;;5.30;54.04;98387.93;108332;1277;24263;-74
2022/04/04 10:43:55;;;;;;;14.50;8.10;;;;;;;5.32;53.67;98377.13;108336;1277;24423;-74
2022/04/04 10:46:25;;;;;;;13.90;8.20;;;;;;;5.45;54.03;98368.19;108373;1277;22559;-74
2022/04/04 10:48:59;;;;;;;11.90;7.40;;;;;;;5.62;54.02;98371.87;108333;1277;22556;-74
2022/04/04 10:51:35;;;;;;;11.00;7.50;;;;;;;5.70;53.70;98367.54;108343;1277;25253;-74
2022/04/04 10:54:04;;;;;;;10.90;7.20;;;;;;;5.65;53.41;98364.60;108354;1277;22562;-74
2022/04/04 10:56:42;;;;;;;13.30;7.20;;;;;;;5.63;53.21;98362.33;108308;1277;22554;-73
2022/04/04 10:59:16;;;;;;;14.20;8.60;;;;;;;5.56;52.87;98363.00;108347;1277;22564;-73
2022/04/04 11:01:48;;;;;;;11.20;6.50;;;;;;;5.61;53.15;98359.80;108359;1277;22563;-73
2022/04/04 11:07:37;;;;;;;11.80;6.90;;;;;;;5.72;53.06;98356.00;108329;1277;22596;-73
2022/04/04 11:07:39;;;;;;;7.50;5.00;;;;;;;5.75;51.89;98351.02;108346;1277;22615;-74
2022/04/04 11:10:10;;;;;;;8.90;6.00;;;;;;;5.83;51.33;98349.59;108345;1277;22581;-74
2022/04/04 11:13:04;;;;;;;12.70;7.10;;;;;;;5.87;51.08;98343.69;108336;1277;22591;-74
2022/04/04 11:15:43;;;;;;;;;;;;;;;6.01;51.30;98337.29;108360;1277;22531;-74
2022/04/04 11:18:11;;;;;;;10.00;6.20;;;;;;;5.99;50.60;98327.16;108326;1277;22561;-74
2022/04/04 11:21:03;;;;;;;11.00;6.90;;;;;;;5.96;51.50;98331.49;108331;1277;22603;-74
2022/04/04 11:23:34;;;;;;;9.00;6.20;;;;;;;6.07;52.14;98319.15;108333;1277;22601;-74